createdAt,value
2023-03-29T00:01:03.404Z,0.90
2023-03-29T00:03:05.597Z,0.80
2023-03-29T00:05:08.292Z,0.90
2023-03-29T00:07:10.042Z,0.80
2023-03-29T00:09:11.767Z,0.80
2023-03-29T00:11:13.634Z,0.80
2023-03-29T00:13:15.418Z,0.80
2023-03-29T00:15:17.735Z,0.90
2023-03-29T00:17:19.429Z,0.90
2023-03-29T00:19:21.470Z,0.90
2023-03-29T00:21:23.195Z,0.80
2023-03-29T00:23:25.327Z,0.90
2023-03-29T00:25:27.104Z,0.90
2023-03-29T00:27:29.256Z,0.80
2023-03-29T00:29:31.312Z,0.90
2023-03-29T00:31:33.119Z,0.90
2023-03-29T00:33:35.143Z,0.90
2023-03-29T00:35:38.279Z,0.90
2023-03-29T00:37:41.379Z,0.90
2023-03-29T00:39:44.018Z,0.90
2023-03-29T00:41:46.381Z,0.90
2023-03-29T00:43:52.385Z,0.90
2023-03-29T00:45:54.159Z,0.90
2023-03-29T00:48:03.413Z,0.90
2023-03-29T00:50:08.653Z,0.90
2023-03-29T00:52:10.794Z,0.90
2023-03-29T00:54:16.107Z,0.90
2023-03-29T00:56:24.370Z,0.90
2023-03-29T00:58:34.372Z,0.90
2023-03-29T01:00:42.768Z,0.90
2023-03-29T01:02:45.721Z,0.90
2023-03-29T01:04:57.966Z,1.00
2023-03-29T01:07:02.860Z,1.00
2023-03-29T01:09:08.115Z,1.00
2023-03-29T01:11:12.604Z,1.00
2023-03-29T01:13:18.262Z,1.00
2023-03-29T01:15:21.278Z,1.00
2023-03-29T01:17:25.579Z,1.00
2023-03-29T01:19:30.343Z,1.00
2023-03-29T01:21:52.634Z,1.00
2023-03-29T01:23:54.509Z,1.00
2023-03-29T01:26:09.799Z,1.00
2023-03-29T01:28:12.978Z,1.00
2023-03-29T01:30:18.324Z,1.00
2023-03-29T01:32:23.398Z,1.00
2023-03-29T01:34:27.397Z,1.00
2023-03-29T01:37:00.336Z,1.00
2023-03-29T01:39:05.915Z,1.00
2023-03-29T01:41:07.970Z,1.00
2023-03-29T01:43:09.702Z,1.00
2023-03-29T01:45:20.553Z,1.00
2023-03-29T01:47:31.495Z,1.00
2023-03-29T01:49:36.500Z,1.00
2023-03-29T01:51:38.209Z,1.00
2023-03-29T01:53:52.830Z,1.00
2023-03-29T01:56:00.461Z,1.00
2023-03-29T01:58:03.041Z,1.00
2023-03-29T02:00:10.026Z,1.00
2023-03-29T02:02:14.821Z,1.00
2023-03-29T02:04:18.591Z,1.10
2023-03-29T02:06:22.553Z,1.10
2023-03-29T02:08:24.714Z,1.00
2023-03-29T02:10:26.981Z,1.10
2023-03-29T02:12:28.924Z,1.10
2023-03-29T02:14:30.672Z,1.10
2023-03-29T02:16:39.135Z,1.10
2023-03-29T02:18:44.767Z,1.10
2023-03-29T02:20:48.507Z,1.10
2023-03-29T02:23:09.132Z,1.10
2023-03-29T02:25:11.058Z,1.10
2023-03-29T02:27:12.809Z,1.00
2023-03-29T02:29:14.803Z,1.10
2023-03-29T02:31:22.815Z,1.10
2023-03-29T02:33:32.862Z,1.10
2023-03-29T02:35:36.460Z,1.10
2023-03-29T02:37:41.060Z,1.10
2023-03-29T02:39:42.864Z,1.20
2023-03-29T02:41:47.145Z,1.10
2023-03-29T02:43:49.962Z,1.10
2023-03-29T02:45:52.686Z,1.10
2023-03-29T02:47:56.456Z,1.10
2023-03-29T02:49:59.125Z,1.10
2023-03-29T02:52:03.341Z,1.10
2023-03-29T02:54:08.244Z,1.10
2023-03-29T02:56:10.053Z,1.10
2023-03-29T02:58:13.411Z,1.10
2023-03-29T03:00:19.948Z,1.10
2023-03-29T03:02:21.773Z,1.10
2023-03-29T03:04:23.839Z,1.10
2023-03-29T03:06:25.568Z,1.10
2023-03-29T03:08:27.561Z,1.10
2023-03-29T03:10:31.160Z,1.10
2023-03-29T03:12:32.924Z,1.10
2023-03-29T03:14:34.757Z,1.10
2023-03-29T03:16:37.253Z,1.10
2023-03-29T03:18:39.164Z,1.20
2023-03-29T03:20:40.992Z,1.10
2023-03-29T03:22:45.216Z,1.10
2023-03-29T03:24:47.216Z,1.20
2023-03-29T03:26:50.056Z,1.10
2023-03-29T03:28:51.771Z,1.10
2023-03-29T03:30:54.260Z,1.10
2023-03-29T03:32:56.378Z,1.10
2023-03-29T03:34:58.932Z,1.10
2023-03-29T03:37:01.949Z,1.10
2023-03-29T03:39:05.912Z,1.10
2023-03-29T03:41:07.756Z,1.10
2023-03-29T03:43:09.809Z,1.10
2023-03-29T03:45:12.336Z,1.10
2023-03-29T03:47:14.601Z,1.00
2023-03-29T03:49:16.600Z,1.10
2023-03-29T03:51:18.563Z,1.00
2023-03-29T03:53:20.513Z,1.00
2023-03-29T03:55:22.743Z,1.00
2023-03-29T03:57:24.739Z,1.00
2023-03-29T03:59:26.684Z,1.00
2023-03-29T04:01:28.479Z,1.00
2023-03-29T04:03:30.404Z,1.00
2023-03-29T04:05:32.644Z,1.00
2023-03-29T04:07:34.489Z,1.00
2023-03-29T04:09:36.379Z,1.00
2023-03-29T04:11:38.184Z,1.00
2023-03-29T04:13:39.902Z,1.00
2023-03-29T04:15:41.721Z,1.00
2023-03-29T04:17:43.898Z,1.00
2023-03-29T04:19:45.782Z,1.00
2023-03-29T04:21:49.552Z,1.00
2023-03-29T04:23:51.309Z,1.00
2023-03-29T04:25:59.464Z,1.00
2023-03-29T04:28:01.478Z,1.00
2023-03-29T04:30:03.629Z,1.00
2023-03-29T04:32:05.375Z,1.00
2023-03-29T04:34:07.278Z,1.00
2023-03-29T04:36:09.466Z,1.00
2023-03-29T04:38:11.624Z,1.00
2023-03-29T04:40:19.421Z,0.90
2023-03-29T04:42:21.214Z,1.00
2023-03-29T04:44:22.941Z,1.00
2023-03-29T04:46:26.758Z,0.90
2023-03-29T04:48:31.574Z,1.00
2023-03-29T04:50:33.364Z,0.90
2023-03-29T04:52:35.569Z,0.90
2023-03-29T04:54:37.661Z,0.90
2023-03-29T04:56:39.408Z,0.90
2023-03-29T04:58:42.324Z,0.90
2023-03-29T05:00:44.297Z,0.90
2023-03-29T05:02:47.499Z,0.90
2023-03-29T05:04:49.473Z,0.90
2023-03-29T05:06:51.458Z,0.80
2023-03-29T05:08:53.292Z,0.90
2023-03-29T05:10:55.103Z,0.90
2023-03-29T05:12:57.008Z,0.90
2023-03-29T05:14:58.770Z,0.90
2023-03-29T05:17:01.923Z,0.90
2023-03-29T05:19:04.046Z,0.90
2023-03-29T05:21:06.403Z,0.90
2023-03-29T05:23:08.469Z,0.80
2023-03-29T05:25:11.786Z,0.90
2023-03-29T05:27:13.604Z,0.90
2023-03-29T05:29:15.385Z,0.90
2023-03-29T05:31:17.500Z,0.90
2023-03-29T05:33:19.229Z,0.90
2023-03-29T05:35:21.131Z,0.90
2023-03-29T05:37:22.870Z,0.90
2023-03-29T05:39:24.981Z,0.90
2023-03-29T05:41:26.806Z,0.80
2023-03-29T05:43:28.751Z,0.90
2023-03-29T05:45:32.522Z,0.90
2023-03-29T05:47:34.390Z,0.90
2023-03-29T05:49:38.072Z,0.90
2023-03-29T05:51:42.078Z,0.90
2023-03-29T05:53:45.322Z,0.90
2023-03-29T05:55:47.346Z,1.10
2023-03-29T05:57:49.347Z,1.10
2023-03-29T05:59:51.551Z,1.00
2023-03-29T06:01:54.111Z,1.10
2023-03-29T06:03:57.446Z,1.10
2023-03-29T06:06:00.745Z,0.90
2023-03-29T06:08:02.721Z,0.90
2023-03-29T06:10:05.218Z,0.90
2023-03-29T06:12:07.456Z,0.90
2023-03-29T06:14:09.179Z,0.90
2023-03-29T06:16:11.108Z,0.90
2023-03-29T06:18:13.027Z,0.90
2023-03-29T06:20:14.989Z,0.80
2023-03-29T06:22:17.150Z,0.90
2023-03-29T06:24:18.950Z,0.80
2023-03-29T06:26:20.696Z,0.80
2023-03-29T06:28:23.945Z,0.80
2023-03-29T06:30:25.939Z,0.80
2023-03-29T06:32:28.098Z,0.90
2023-03-29T06:34:29.863Z,0.90
2023-03-29T06:36:34.353Z,0.90
2023-03-29T06:38:36.241Z,0.80
2023-03-29T06:40:38.256Z,0.90
2023-03-29T06:42:40.098Z,0.90
2023-03-29T06:44:42.091Z,0.90
2023-03-29T06:46:44.010Z,0.90
2023-03-29T06:48:46.107Z,1.00
2023-03-29T06:50:48.523Z,1.10
2023-03-29T06:52:50.581Z,1.00
2023-03-29T06:54:52.370Z,1.00
2023-03-29T06:56:54.159Z,1.00
2023-03-29T06:58:56.819Z,1.00
2023-03-29T07:01:04.762Z,1.10
2023-03-29T07:03:08.175Z,1.10
2023-03-29T07:05:13.508Z,1.10
2023-03-29T07:07:22.244Z,1.20
2023-03-29T07:09:26.196Z,1.10
2023-03-29T07:11:29.072Z,1.20
2023-03-29T07:13:33.104Z,1.30
2023-03-29T07:15:35.600Z,1.10
2023-03-29T07:17:37.348Z,1.10
2023-03-29T07:19:39.358Z,1.20
2023-03-29T07:21:41.474Z,1.30
2023-03-29T07:23:43.610Z,1.20
2023-03-29T07:25:45.957Z,1.20
2023-03-29T07:27:48.293Z,1.30
2023-03-29T07:29:50.105Z,1.40
2023-03-29T07:31:53.157Z,1.30
2023-03-29T07:33:56.088Z,1.30
2023-03-29T07:35:59.274Z,1.30
2023-03-29T07:38:01.191Z,1.30
2023-03-29T07:40:09.001Z,1.30
2023-03-29T07:42:10.714Z,1.10
2023-03-29T07:44:12.519Z,1.10
2023-03-29T07:46:14.361Z,1.30
2023-03-29T07:48:17.268Z,1.10
2023-03-29T07:50:19.269Z,1.00
2023-03-29T07:52:21.599Z,1.20
2023-03-29T07:54:23.340Z,1.20
2023-03-29T07:56:25.147Z,1.30
2023-03-29T07:58:27.438Z,1.00
2023-03-29T08:00:29.157Z,1.10
2023-03-29T08:02:31.019Z,1.10
2023-03-29T08:04:32.929Z,1.00
2023-03-29T08:06:35.222Z,1.10
2023-03-29T08:08:37.016Z,1.10
2023-03-29T08:10:39.618Z,1.10
2023-03-29T08:12:42.109Z,1.10
2023-03-29T08:14:43.860Z,1.20
2023-03-29T08:16:46.022Z,1.20
2023-03-29T08:18:47.727Z,1.10
2023-03-29T08:20:50.095Z,1.10
2023-03-29T08:22:51.814Z,1.10
2023-03-29T08:24:53.522Z,1.30
2023-03-29T08:26:55.513Z,1.60
2023-03-29T08:28:57.257Z,1.20
2023-03-29T08:30:59.039Z,1.10
2023-03-29T08:33:01.004Z,1.00
2023-03-29T08:35:06.772Z,1.30
2023-03-29T08:37:09.798Z,1.20
2023-03-29T08:39:11.578Z,1.20
2023-03-29T08:41:22.656Z,1.30
2023-03-29T08:43:24.428Z,1.20
2023-03-29T08:45:33.902Z,1.40
2023-03-29T08:47:38.787Z,1.40
2023-03-29T08:49:42.825Z,1.50
2023-03-29T08:51:47.800Z,1.50
2023-03-29T08:53:52.591Z,1.60
2023-03-29T08:55:56.046Z,1.70
2023-03-29T08:57:59.355Z,1.70
2023-03-29T09:00:02.820Z,2.00
2023-03-29T09:02:10.107Z,1.70
2023-03-29T09:04:14.964Z,2.00
2023-03-29T09:06:18.834Z,1.90
2023-03-29T09:08:21.954Z,1.40
2023-03-29T09:10:29.684Z,1.70
2023-03-29T09:12:39.599Z,2.20
2023-03-29T09:14:55.862Z,2.00
2023-03-29T09:17:03.866Z,1.60
2023-03-29T09:19:24.030Z,1.90
2023-03-29T09:21:43.993Z,2.00
2023-03-29T09:23:52.655Z,2.10
2023-03-29T09:26:04.873Z,1.80
2023-03-29T09:28:14.406Z,2.00
2023-03-29T09:30:25.852Z,2.00
2023-03-29T09:32:33.665Z,1.80
2023-03-29T09:34:41.853Z,2.20
2023-03-29T09:36:52.569Z,2.00
2023-03-29T09:38:55.627Z,2.30
2023-03-29T09:41:00.540Z,1.90
2023-03-29T09:43:04.303Z,2.10
2023-03-29T09:45:09.805Z,2.10
2023-03-29T09:47:17.392Z,1.80
2023-03-29T09:49:21.798Z,2.10
2023-03-29T09:51:27.078Z,1.90
2023-03-29T09:53:28.903Z,2.00
2023-03-29T09:55:32.461Z,2.20
2023-03-29T09:57:34.632Z,2.20
2023-03-29T09:59:36.976Z,2.20
2023-03-29T10:01:41.663Z,2.10
2023-03-29T10:03:47.937Z,2.00
2023-03-29T10:05:53.413Z,2.40
2023-03-29T10:07:57.723Z,2.10
2023-03-29T10:10:00.289Z,2.50
2023-03-29T10:12:05.696Z,2.30
2023-03-29T10:14:12.804Z,2.20
2023-03-29T10:16:20.000Z,2.30
2023-03-29T10:18:24.643Z,2.20
2023-03-29T10:20:26.818Z,2.10
2023-03-29T10:22:37.673Z,2.30
2023-03-29T10:24:39.580Z,2.30
2023-03-29T10:26:41.752Z,2.50
2023-03-29T10:28:44.700Z,2.40
2023-03-29T10:30:52.396Z,2.60
2023-03-29T10:33:00.488Z,2.50
2023-03-29T10:35:24.006Z,2.50
2023-03-29T10:37:28.342Z,2.60
2023-03-29T10:39:33.573Z,2.60
2023-03-29T10:41:35.744Z,2.80
2023-03-29T10:43:39.355Z,2.80
2023-03-29T10:45:42.459Z,2.80
2023-03-29T10:47:45.541Z,2.80
2023-03-29T10:49:56.710Z,2.70
2023-03-29T10:51:59.042Z,2.80
2023-03-29T10:54:01.726Z,2.50
2023-03-29T10:56:37.122Z,2.60
2023-03-29T10:58:56.837Z,2.40
2023-03-29T11:00:58.926Z,2.20
2023-03-29T11:03:15.585Z,2.20
2023-03-29T11:05:18.304Z,2.10
2023-03-29T11:07:28.206Z,2.20
2023-03-29T11:09:42.246Z,2.30
2023-03-29T11:12:14.818Z,2.20
2023-03-29T11:14:23.441Z,2.20
2023-03-29T11:16:25.594Z,2.10
2023-03-29T11:18:40.531Z,2.20
2023-03-29T11:20:45.976Z,2.40
2023-03-29T11:23:10.752Z,2.70
2023-03-29T11:25:31.102Z,2.80
2023-03-29T11:27:41.037Z,2.60
2023-03-29T11:30:00.648Z,2.50
2023-03-29T11:32:28.515Z,2.20
2023-03-29T11:34:45.594Z,2.20
2023-03-29T11:36:53.790Z,2.30
2023-03-29T11:39:11.410Z,2.50
2023-03-29T11:41:18.820Z,2.40
2023-03-29T11:43:26.201Z,2.40
2023-03-29T11:45:49.209Z,2.40
2023-03-29T11:47:53.027Z,2.20
2023-03-29T11:49:57.832Z,2.30
2023-03-29T11:52:18.626Z,2.40
2023-03-29T11:54:23.944Z,2.20
2023-03-29T11:56:32.450Z,2.30
2023-03-29T11:58:39.633Z,2.20
2023-03-29T12:00:49.544Z,2.40
2023-03-29T12:02:54.536Z,2.40
2023-03-29T12:04:59.241Z,2.20
2023-03-29T12:07:17.316Z,2.20
2023-03-29T12:09:50.087Z,2.20
2023-03-29T12:12:01.427Z,2.30
2023-03-29T12:14:12.650Z,2.20
2023-03-29T12:16:29.561Z,2.30
2023-03-29T12:18:41.043Z,2.20
2023-03-29T12:20:42.757Z,2.30
2023-03-29T12:22:46.494Z,2.10
2023-03-29T12:24:51.182Z,2.10
2023-03-29T12:26:52.883Z,2.10
2023-03-29T12:29:05.625Z,2.20
2023-03-29T12:31:10.171Z,2.20
2023-03-29T12:33:32.271Z,2.20
2023-03-29T12:35:53.296Z,2.20
2023-03-29T12:38:14.232Z,2.20
2023-03-29T12:40:17.754Z,2.20
2023-03-29T12:42:21.046Z,2.30
2023-03-29T12:44:23.621Z,2.50
2023-03-29T12:46:26.779Z,2.30
2023-03-29T12:48:30.197Z,2.20
2023-03-29T12:50:42.887Z,2.20
2023-03-29T12:52:44.666Z,2.20
2023-03-29T12:54:53.645Z,2.20
2023-03-29T12:56:55.492Z,2.10
2023-03-29T12:59:15.923Z,2.20
2023-03-29T13:01:31.577Z,2.10
2023-03-29T13:03:37.164Z,2.10
2023-03-29T13:05:39.349Z,2.10
2023-03-29T13:07:46.335Z,2.20
2023-03-29T13:09:55.531Z,2.20
2023-03-29T13:11:59.561Z,2.20
2023-03-29T13:14:03.225Z,2.30
2023-03-29T13:16:09.590Z,2.30
2023-03-29T13:18:23.219Z,2.30
2023-03-29T13:20:39.841Z,2.20
2023-03-29T13:22:54.057Z,2.20
2023-03-29T13:25:14.428Z,2.30
2023-03-29T13:27:22.236Z,2.20
2023-03-29T13:29:33.767Z,2.10
2023-03-29T13:31:45.761Z,2.10
2023-03-29T13:33:53.347Z,2.10
2023-03-29T13:36:14.439Z,2.20
2023-03-29T13:38:31.921Z,2.20
2023-03-29T13:40:53.967Z,2.10
2023-03-29T13:43:09.796Z,2.10
2023-03-29T13:45:28.851Z,2.10
2023-03-29T13:47:33.682Z,2.10
2023-03-29T13:49:35.721Z,2.00
2023-03-29T13:51:39.273Z,2.00
2023-03-29T13:53:56.835Z,2.00
2023-03-29T13:55:58.803Z,2.00
2023-03-29T13:58:18.821Z,2.10
2023-03-29T14:00:23.747Z,2.10
2023-03-29T14:02:30.797Z,2.00
2023-03-29T14:04:38.000Z,2.00
2023-03-29T14:06:40.045Z,2.00
2023-03-29T14:08:42.637Z,2.00
2023-03-29T14:10:45.503Z,1.90
2023-03-29T14:12:47.710Z,2.00
2023-03-29T14:14:58.925Z,1.90
2023-03-29T14:17:01.411Z,2.00
2023-03-29T14:19:04.678Z,2.00
2023-03-29T14:21:07.036Z,1.90
2023-03-29T14:23:14.988Z,1.90
2023-03-29T14:25:18.800Z,1.80
2023-03-29T14:27:22.109Z,1.80
2023-03-29T14:29:25.500Z,1.80
2023-03-29T14:31:32.135Z,1.80
2023-03-29T14:33:34.809Z,1.70
2023-03-29T14:35:37.072Z,1.80
2023-03-29T14:37:38.875Z,1.70
2023-03-29T14:39:41.171Z,1.80
2023-03-29T14:41:47.189Z,1.70
2023-03-29T14:43:49.093Z,1.70
2023-03-29T14:45:51.094Z,1.70
2023-03-29T14:47:53.133Z,1.70
2023-03-29T14:49:57.075Z,1.70
2023-03-29T14:51:59.076Z,1.70
2023-03-29T14:54:03.068Z,1.70
2023-03-29T14:56:06.772Z,1.60
2023-03-29T14:58:31.975Z,1.60
2023-03-29T15:00:42.473Z,1.60
2023-03-29T15:02:53.559Z,1.60
2023-03-29T15:04:56.612Z,1.70
2023-03-29T15:06:58.503Z,1.60
2023-03-29T15:09:05.255Z,1.60
2023-03-29T15:11:14.346Z,1.60
2023-03-29T15:13:18.555Z,1.60
2023-03-29T15:15:21.574Z,1.60
2023-03-29T15:17:23.318Z,1.60
2023-03-29T15:19:25.725Z,1.60
2023-03-29T15:21:31.022Z,1.60
2023-03-29T15:23:52.751Z,1.60
2023-03-29T15:25:56.398Z,1.60
2023-03-29T15:28:00.190Z,1.60
2023-03-29T15:30:03.350Z,1.60
2023-03-29T15:32:05.276Z,1.60
2023-03-29T15:34:09.379Z,1.60
2023-03-29T15:36:13.203Z,1.60
2023-03-29T15:38:15.018Z,1.60
2023-03-29T15:40:17.281Z,1.50
2023-03-29T15:42:19.255Z,1.50
2023-03-29T15:44:22.798Z,1.50
2023-03-29T15:46:24.608Z,1.50
2023-03-29T15:48:27.995Z,1.50
2023-03-29T15:50:29.779Z,1.40
2023-03-29T15:52:31.815Z,1.40
2023-03-29T15:54:33.871Z,1.40
2023-03-29T15:56:39.946Z,1.30
2023-03-29T15:58:43.186Z,1.40
2023-03-29T16:00:48.750Z,1.30
2023-03-29T16:02:51.420Z,1.40
2023-03-29T16:04:53.528Z,1.30
2023-03-29T16:06:55.659Z,1.40
2023-03-29T16:08:57.637Z,1.30
2023-03-29T16:10:59.514Z,1.30
2023-03-29T16:13:01.628Z,1.30
2023-03-29T16:15:09.054Z,1.30
2023-03-29T16:17:10.917Z,1.30
2023-03-29T16:19:12.986Z,1.30
2023-03-29T16:21:16.358Z,1.30
2023-03-29T16:23:18.382Z,1.30
2023-03-29T16:25:22.856Z,1.30
2023-03-29T16:27:24.584Z,1.30
2023-03-29T16:29:26.372Z,1.30
2023-03-29T16:31:28.250Z,1.30
2023-03-29T16:33:30.046Z,1.30
2023-03-29T16:35:32.941Z,1.30
2023-03-29T16:37:34.734Z,1.30
2023-03-29T16:39:37.905Z,1.30
2023-03-29T16:41:40.371Z,1.30
2023-03-29T16:43:42.244Z,1.30
2023-03-29T16:45:44.085Z,1.30
2023-03-29T16:47:45.867Z,1.30
2023-03-29T16:49:48.726Z,1.30
2023-03-29T16:51:50.471Z,1.30
2023-03-29T16:53:52.227Z,1.20
2023-03-29T16:55:54.146Z,1.30
2023-03-29T16:57:56.506Z,1.20
2023-03-29T16:59:58.407Z,1.20
2023-03-29T17:02:00.550Z,1.30
2023-03-29T17:04:02.732Z,1.20
2023-03-29T17:06:05.411Z,1.20
2023-03-29T17:08:09.262Z,1.30
2023-03-29T17:10:11.676Z,1.20
2023-03-29T17:12:13.452Z,1.30
2023-03-29T17:14:15.519Z,1.20
2023-03-29T17:16:18.077Z,1.30
2023-03-29T17:18:21.206Z,1.20
2023-03-29T17:20:23.101Z,1.20
2023-03-29T17:22:26.529Z,1.20
2023-03-29T17:24:28.320Z,1.20
2023-03-29T17:26:30.193Z,1.20
2023-03-29T17:28:31.976Z,1.20
2023-03-29T17:30:34.251Z,1.20
2023-03-29T17:32:36.747Z,1.20
2023-03-29T17:34:38.938Z,1.20
2023-03-29T17:36:41.341Z,1.20
2023-03-29T17:38:43.288Z,1.20
2023-03-29T17:40:51.536Z,1.10
2023-03-29T17:42:53.345Z,1.10
2023-03-29T17:44:55.186Z,1.10
2023-03-29T17:46:56.933Z,1.10
2023-03-29T17:49:00.319Z,1.10
2023-03-29T17:51:02.115Z,1.10
2023-03-29T17:53:03.975Z,1.10
2023-03-29T17:55:10.991Z,1.10
2023-03-29T17:57:12.862Z,1.10
2023-03-29T17:59:14.606Z,1.10
2023-03-29T18:01:19.505Z,1.20
2023-03-29T18:03:21.708Z,1.10
2023-03-29T18:05:23.470Z,1.10
2023-03-29T18:07:25.446Z,1.10
2023-03-29T18:09:30.228Z,1.10
2023-03-29T18:11:33.040Z,1.10
2023-03-29T18:13:34.802Z,1.00
2023-03-29T18:15:36.594Z,1.00
2023-03-29T18:17:38.361Z,1.00
2023-03-29T18:19:40.159Z,1.00
2023-03-29T18:21:41.920Z,1.00
2023-03-29T18:23:44.919Z,1.00
2023-03-29T18:25:46.683Z,1.00
2023-03-29T18:27:48.433Z,1.10
2023-03-29T18:29:50.255Z,1.00
2023-03-29T18:31:52.136Z,1.10
2023-03-29T18:33:54.185Z,1.00
2023-03-29T18:35:56.153Z,1.00
2023-03-29T18:37:59.057Z,1.00
2023-03-29T18:40:01.043Z,1.00
2023-03-29T18:42:02.888Z,1.00
2023-03-29T18:44:05.035Z,1.00
2023-03-29T18:46:07.922Z,1.00
2023-03-29T18:48:10.210Z,1.00
2023-03-29T18:50:13.241Z,1.00
2023-03-29T18:52:32.325Z,1.00
2023-03-29T18:54:34.220Z,1.00
2023-03-29T18:56:36.064Z,1.00
2023-03-29T18:58:39.035Z,1.00
2023-03-29T19:00:41.912Z,1.00
2023-03-29T19:02:43.798Z,0.90
2023-03-29T19:04:45.731Z,0.90
2023-03-29T19:06:49.303Z,1.00
2023-03-29T19:08:51.406Z,0.90
2023-03-29T19:10:59.932Z,0.90
2023-03-29T19:13:01.809Z,0.90
2023-03-29T19:15:03.963Z,0.90
2023-03-29T19:17:05.983Z,0.90
2023-03-29T19:19:07.801Z,0.90
2023-03-29T19:21:10.065Z,0.90
2023-03-29T19:23:11.981Z,0.90
2023-03-29T19:25:13.948Z,0.90
2023-03-29T19:27:16.020Z,0.90
2023-03-29T19:29:17.781Z,0.90
2023-03-29T19:31:19.672Z,0.90
2023-03-29T19:33:21.666Z,0.90
2023-03-29T19:35:23.476Z,0.90
2023-03-29T19:37:25.581Z,0.90
2023-03-29T19:39:29.465Z,0.90
2023-03-29T19:41:31.535Z,0.80
2023-03-29T19:43:35.328Z,0.90
2023-03-29T19:45:37.212Z,0.90
2023-03-29T19:47:40.203Z,0.90
2023-03-29T19:49:42.708Z,0.90
2023-03-29T19:51:44.698Z,0.90
2023-03-29T19:53:47.260Z,0.80
2023-03-29T19:55:49.562Z,0.80
2023-03-29T19:57:51.544Z,0.80
2023-03-29T19:59:54.087Z,0.80
2023-03-29T20:01:58.436Z,0.80
2023-03-29T20:04:01.744Z,0.80
2023-03-29T20:06:04.298Z,0.80
2023-03-29T20:08:08.032Z,0.80
2023-03-29T20:10:11.139Z,0.80
2023-03-29T20:12:13.029Z,0.80
2023-03-29T20:14:15.143Z,0.80
2023-03-29T20:16:18.534Z,0.80
2023-03-29T20:18:21.125Z,0.80
2023-03-29T20:20:24.648Z,0.80
2023-03-29T20:22:30.610Z,0.70
2023-03-29T20:24:34.749Z,0.70
2023-03-29T20:26:36.940Z,0.70
2023-03-29T20:28:38.830Z,0.70
2023-03-29T20:30:41.469Z,0.70
2023-03-29T20:32:43.444Z,0.70
2023-03-29T20:34:45.305Z,0.70
2023-03-29T20:36:47.292Z,0.70
2023-03-29T20:38:49.815Z,0.70
2023-03-29T20:40:51.685Z,0.70
2023-03-29T20:42:54.353Z,0.70
2023-03-29T20:44:56.527Z,0.70
2023-03-29T20:47:05.205Z,0.70
2023-03-29T20:49:10.354Z,0.70
2023-03-29T20:51:14.099Z,0.70
2023-03-29T20:53:16.372Z,0.70
2023-03-29T20:55:22.280Z,0.70
2023-03-29T20:57:24.516Z,0.70
2023-03-29T20:59:27.596Z,0.70
2023-03-29T21:01:32.673Z,0.70
2023-03-29T21:03:35.225Z,0.70
2023-03-29T21:05:37.201Z,0.70
2023-03-29T21:07:39.289Z,0.70
2023-03-29T21:09:42.262Z,0.70
2023-03-29T21:11:44.078Z,0.70
2023-03-29T21:13:46.267Z,0.70
2023-03-29T21:15:48.220Z,0.70
2023-03-29T21:17:50.466Z,0.70
2023-03-29T21:19:53.261Z,0.70
2023-03-29T21:21:55.306Z,0.70
2023-03-29T21:23:57.110Z,0.70
2023-03-29T21:25:59.036Z,0.70
2023-03-29T21:28:01.096Z,0.70
2023-03-29T21:30:06.787Z,0.70
2023-03-29T21:32:09.061Z,0.70
2023-03-29T21:34:11.044Z,0.70
2023-03-29T21:36:12.829Z,0.70
2023-03-29T21:38:15.579Z,0.70
2023-03-29T21:40:17.492Z,0.70
2023-03-29T21:42:19.416Z,0.70
2023-03-29T21:44:21.425Z,0.70
2023-03-29T21:46:24.654Z,0.70
2023-03-29T21:48:26.674Z,0.70
2023-03-29T21:50:28.482Z,0.70
2023-03-29T21:52:31.165Z,0.70
2023-03-29T21:54:33.165Z,0.70
2023-03-29T21:56:34.969Z,0.70
2023-03-29T21:58:36.841Z,0.70
2023-03-29T22:00:38.719Z,0.70
2023-03-29T22:02:41.374Z,0.70
2023-03-29T22:04:43.450Z,0.70
2023-03-29T22:06:45.292Z,0.70
2023-03-29T22:08:49.536Z,0.70
2023-03-29T22:10:55.415Z,0.70
2023-03-29T22:12:57.494Z,0.70
2023-03-29T22:14:59.355Z,0.70
2023-03-29T22:17:01.631Z,0.70
2023-03-29T22:19:04.347Z,0.70
2023-03-29T22:21:06.382Z,0.70
2023-03-29T22:23:08.102Z,0.70
2023-03-29T22:25:10.663Z,0.60
2023-03-29T22:27:12.792Z,0.60
2023-03-29T22:29:14.698Z,0.70
2023-03-29T22:31:18.954Z,0.70
2023-03-29T22:33:20.966Z,0.70
2023-03-29T22:35:22.683Z,0.70
2023-03-29T22:37:24.634Z,0.70
2023-03-29T22:39:26.913Z,0.70
2023-03-29T22:41:28.901Z,0.60
2023-03-29T22:43:31.065Z,0.70
2023-03-29T22:45:33.039Z,0.70
2023-03-29T22:47:35.404Z,0.60
2023-03-29T22:49:37.168Z,0.60
2023-03-29T22:51:39.111Z,0.70
2023-03-29T22:53:41.646Z,0.70
2023-03-29T22:55:45.441Z,0.60
2023-03-29T22:57:47.367Z,0.60
2023-03-29T22:59:49.262Z,0.60
2023-03-29T23:01:51.633Z,0.60
2023-03-29T23:03:53.679Z,0.60
2023-03-29T23:05:58.284Z,0.60
2023-03-29T23:08:00.449Z,0.60
2023-03-29T23:10:09.479Z,0.70
2023-03-29T23:12:11.379Z,0.60
2023-03-29T23:14:13.261Z,0.60
2023-03-29T23:16:15.721Z,0.60
2023-03-29T23:18:21.107Z,0.60
2023-03-29T23:20:24.184Z,0.60
2023-03-29T23:22:26.274Z,0.60
2023-03-29T23:24:30.401Z,0.60
2023-03-29T23:26:33.290Z,0.60
2023-03-29T23:28:35.403Z,0.60
2023-03-29T23:30:38.493Z,0.70
2023-03-29T23:32:40.331Z,0.60
2023-03-29T23:34:42.520Z,0.60
2023-03-29T23:36:44.383Z,0.60
2023-03-29T23:38:47.930Z,0.60
2023-03-29T23:40:59.140Z,0.60
2023-03-29T23:43:01.052Z,0.60
2023-03-29T23:45:03.573Z,0.60
2023-03-29T23:47:06.210Z,0.60
2023-03-29T23:49:09.921Z,0.60
2023-03-29T23:51:11.941Z,0.60
2023-03-29T23:53:13.903Z,0.60
2023-03-29T23:55:16.155Z,0.50
2023-03-29T23:57:18.030Z,0.60
2023-03-29T23:59:19.930Z,0.50
